Time;durP1;ratioP1;P1;durP2;ratioP2;P2;SDS_P1;SDS_P2;PMS_P1;PMS_P2;Temp;Humidity;BMP_temperature;BMP_pressure;BME280_temperature;BME280_humidity;BME280_pressure;Samples;Min_cycle;Max_cycle;Signal;HPM_P1;HPM_P2
2022/06/12 00:00:44;;;;;;;0.20;0.10;;;20.40;66.90;;;;;;5039759;28;20029;-85
2022/06/12 00:03:13;;;;;;;0.15;0.10;;;20.30;66.90;;;;;;5040929;28;20044;-86
2022/06/12 00:05:42;;;;;;;0.10;0.10;;;20.30;66.90;;;;;;5041306;28;20037;-85
2022/06/12 00:08:08;;;;;;;0.00;0.00;;;20.30;66.70;;;;;;5039549;28;20796;-86
2022/06/12 00:10:37;;;;;;;0.22;0.10;;;20.30;66.90;;;;;;5034215;28;20056;-86
2022/06/12 00:13:05;;;;;;;0.08;0.08;;;20.10;67.30;;;;;;5040878;28;20036;-85
2022/06/12 00:15:31;;;;;;;0.30;0.30;;;20.10;67.60;;;;;;5038332;28;20036;-85
2022/06/12 00:17:58;;;;;;;0.10;0.10;;;20.00;67.90;;;;;;5005153;28;20698;-85
2022/06/12 00:20:24;;;;;;;0.00;0.00;;;20.00;68.00;;;;;;5042460;28;20460;-85
2022/06/12 00:22:52;;;;;;;0.13;0.13;;;19.90;68.00;;;;;;5043209;28;20813;-85
2022/06/12 00:25:18;;;;;;;0.05;0.05;;;19.90;67.80;;;;;;5044362;28;20120;-82
2022/06/12 00:27:45;;;;;;;0.00;0.00;;;20.00;67.40;;;;;;5041886;28;20518;-83
2022/06/12 00:30:12;;;;;;;;;;;20.00;67.50;;;;;;5044561;28;20029;-83
2022/06/12 00:32:38;;;;;;;0.00;0.00;;;20.00;67.50;;;;;;5042773;28;19956;-84
2022/06/12 00:35:07;;;;;;;0.00;0.00;;;20.00;67.20;;;;;;5042404;28;20404;-85
2022/06/12 00:37:34;;;;;;;0.55;0.10;;;20.10;66.80;;;;;;5044031;28;20045;-84
2022/06/12 00:40:00;;;;;;;0.03;0.03;;;20.10;66.90;;;;;;5024405;28;20055;-83
2022/06/12 00:42:31;;;;;;;0.00;0.00;;;20.00;67.30;;;;;;5042850;28;20090;-83
2022/06/12 00:45:00;;;;;;;0.10;0.10;;;20.10;67.30;;;;;;5042531;28;20111;-84
2022/06/12 00:47:26;;;;;;;0.13;0.13;;;20.10;66.30;;;;;;5040523;28;20037;-82
2022/06/12 00:50:03;;;;;;;0.00;0.00;;;20.20;65.70;;;;;;5025650;28;20048;-83
2022/06/12 00:52:32;;;;;;;0.03;0.03;;;19.90;66.50;;;;;;5042782;28;20044;-83
2022/06/12 00:55:11;;;;;;;0.00;0.00;;;19.90;67.30;;;;;;5042000;28;20032;-84
2022/06/12 00:57:37;;;;;;;0.00;0.00;;;19.90;67.70;;;;;;5041972;28;20041;-85
2022/06/12 01:00:13;;;;;;;0.00;0.00;;;19.80;68.10;;;;;;5043808;28;20021;-84
2022/06/12 01:02:39;;;;;;;0.20;0.10;;;19.70;68.70;;;;;;5043064;28;20033;-84
2022/06/12 01:07:57;;;;;;;0.10;0.10;;;19.60;70.20;;;;;;5043341;28;20117;-84
2022/06/12 01:10:28;;;;;;;0.00;0.00;;;19.40;71.30;;;;;;5040663;28;20514;-84
2022/06/12 01:13:01;;;;;;;0.88;0.15;;;19.20;72.40;;;;;;5041240;28;20033;-84
2022/06/12 01:15:34;;;;;;;0.10;0.10;;;19.10;73.50;;;;;;5042204;28;20035;-85
2022/06/12 01:18:01;;;;;;;0.10;0.10;;;19.10;74.30;;;;;;5045793;28;20127;-84
2022/06/12 01:20:32;;;;;;;0.00;0.00;;;19.00;74.80;;;;;;5042619;28;20029;-83
2022/06/12 01:23:23;;;;;;;1.55;0.55;;;18.90;75.40;;;;;;5035382;28;20408;-84
2022/06/12 01:26:06;;;;;;;0.00;0.00;;;18.80;76.40;;;;;;5042098;28;20025;-84
2022/06/12 01:28:35;;;;;;;0.13;0.13;;;18.60;77.10;;;;;;5025988;28;20029;-83
2022/06/12 01:31:23;;;;;;;0.45;0.30;;;18.60;77.50;;;;;;5043126;28;20036;-84
2022/06/12 01:34:06;;;;;;;0.10;0.10;;;18.50;77.90;;;;;;5039074;28;20564;-84
2022/06/12 01:36:57;;;;;;;0.10;0.10;;;18.50;77.90;;;;;;5042624;28;20036;-84
2022/06/12 01:39:28;;;;;;;0.85;0.20;;;18.50;78.30;;;;;;5038703;28;20128;-84
2022/06/12 01:42:11;;;;;;;0.00;0.00;;;18.50;78.10;;;;;;5044378;28;20512;-84
2022/06/12 01:44:45;;;;;;;0.10;0.10;;;18.50;77.90;;;;;;5040497;28;20029;-84
2022/06/12 01:47:20;;;;;;;20.00;1.92;;;18.60;77.70;;;;;;5041170;28;20230;-84
2022/06/12 01:50:00;;;;;;;0.00;0.00;;;18.60;77.40;;;;;;5041134;28;20669;-84
2022/06/12 01:52:34;;;;;;;0.20;0.20;;;18.70;76.70;;;;;;5035832;28;20047;-84
2022/06/12 01:55:26;;;;;;;0.10;0.10;;;18.60;76.90;;;;;;5040424;28;20022;-84
2022/06/12 01:58:26;;;;;;;0.13;0.10;;;18.70;76.50;;;;;;5038206;28;20040;-83
2022/06/12 02:01:07;;;;;;;0.30;0.30;;;18.70;76.00;;;;;;5018514;28;20080;-84
2022/06/12 02:03:45;;;;;;;0.10;0.10;;;18.60;76.70;;;;;;5041742;28;20500;-84
2022/06/12 02:06:23;;;;;;;0.00;0.00;;;18.50;76.90;;;;;;5040800;28;20021;-84
2022/06/12 02:08:57;;;;;;;0.05;0.05;;;18.60;76.80;;;;;;5038271;28;20033;-82
2022/06/12 02:14:20;;;;;;;0.00;0.00;;;18.60;76.70;;;;;;5039896;28;20043;-82
2022/06/12 02:16:51;;;;;;;0.10;0.10;;;18.50;77.00;;;;;;5039005;28;20126;-84
2022/06/12 02:19:22;;;;;;;0.20;0.10;;;18.40;77.60;;;;;;5021789;28;20036;-83
2022/06/12 02:22:07;;;;;;;0.10;0.10;;;18.30;77.80;;;;;;5040811;28;20084;-82
2022/06/12 02:24:46;;;;;;;0.10;0.10;;;18.40;77.90;;;;;;5041899;28;20068;-84
2022/06/12 02:27:34;;;;;;;0.03;0.03;;;18.30;77.60;;;;;;5042087;28;20074;-82
2022/06/12 02:30:08;;;;;;;0.00;0.00;;;18.40;77.60;;;;;;5041189;28;20037;-83
2022/06/12 02:32:38;;;;;;;0.00;0.00;;;18.40;77.60;;;;;;5040964;28;20032;-83
2022/06/12 02:35:12;;;;;;;0.10;0.10;;;18.40;78.10;;;;;;5024460;28;20479;-82
2022/06/12 02:37:44;;;;;;;0.10;0.10;;;18.30;78.10;;;;;;5038726;28;20052;-83
2022/06/12 02:40:18;;;;;;;0.00;0.00;;;18.20;78.60;;;;;;5037016;28;20111;-83
2022/06/12 02:42:46;;;;;;;0.90;0.80;;;18.20;78.90;;;;;;5035148;28;20028;-83
2022/06/12 02:45:20;;;;;;;0.10;0.10;;;18.10;79.20;;;;;;5037926;28;20032;-82
2022/06/12 02:47:48;;;;;;;0.03;0.03;;;18.10;79.40;;;;;;5039371;28;20385;-82
2022/06/12 02:50:17;;;;;;;0.10;0.10;;;18.00;79.70;;;;;;5039353;28;20579;-81
2022/06/12 02:53:02;;;;;;;0.20;0.20;;;18.00;80.00;;;;;;5039380;28;20419;-83
2022/06/12 02:55:47;;;;;;;0.20;0.20;;;18.00;80.30;;;;;;5042216;28;20021;-83
2022/06/12 02:58:41;;;;;;;0.20;0.20;;;18.00;80.30;;;;;;5038659;28;20052;-83
2022/06/12 03:01:17;;;;;;;0.20;0.20;;;18.00;80.30;;;;;;5039453;28;20037;-82
2022/06/12 03:04:20;;;;;;;0.00;0.00;;;17.90;80.60;;;;;;5037386;28;20037;-83
2022/06/12 03:06:46;;;;;;;0.20;0.20;;;17.90;80.40;;;;;;5033851;28;20379;-83
2022/06/12 03:09:12;;;;;;;0.10;0.10;;;17.90;80.80;;;;;;5023436;28;20036;-83
2022/06/12 03:11:42;;;;;;;1.10;0.50;;;17.90;80.90;;;;;;5038981;28;20041;-81
2022/06/12 03:14:12;;;;;;;0.10;0.10;;;17.80;81.40;;;;;;5036298;28;20452;-83
2022/06/12 03:16:41;;;;;;;0.10;0.10;;;17.70;81.90;;;;;;5039590;28;20037;-83
2022/06/12 03:19:28;;;;;;;0.00;0.00;;;17.80;81.50;;;;;;5035825;28;20036;-82
2022/06/12 03:22:15;;;;;;;1.85;0.10;;;17.80;81.40;;;;;;5039115;28;20110;-81
2022/06/12 03:24:53;;;;;;;2.55;0.70;;;17.70;81.90;;;;;;5034563;28;20505;-84
2022/06/12 03:27:30;;;;;;;0.20;0.20;;;17.80;81.10;;;;;;5039269;28;20032;-83
2022/06/12 03:30:08;;;;;;;0.17;0.17;;;17.90;81.10;;;;;;5038161;28;20116;-83
2022/06/12 03:33:12;;;;;;;0.10;0.10;;;17.60;82.00;;;;;;5039734;28;20025;-84
2022/06/12 03:36:15;;;;;;;0.10;0.10;;;17.50;82.80;;;;;;5037870;28;20071;-82
2022/06/12 03:39:07;;;;;;;0.10;0.10;;;17.60;82.40;;;;;;4995663;28;20062;-84
2022/06/12 03:41:49;;;;;;;0.00;0.00;;;17.60;82.30;;;;;;4993156;28;20046;-84
2022/06/12 03:44:28;;;;;;;3.10;1.20;;;17.80;81.60;;;;;;4998335;28;20113;-83
2022/06/12 03:47:03;;;;;;;0.10;0.10;;;17.80;81.10;;;;;;4997905;28;20045;-83
2022/06/12 03:49:48;;;;;;;0.10;0.10;;;17.90;81.00;;;;;;4996436;28;20042;-82
2022/06/12 03:52:28;;;;;;;0.05;0.05;;;17.90;80.00;;;;;;4996023;28;20893;-83
2022/06/12 03:55:16;;;;;;;0.15;0.15;;;17.90;80.80;;;;;;4995447;28;20112;-83
2022/06/12 03:57:52;;;;;;;0.10;0.10;;;17.80;81.50;;;;;;4995929;28;20038;-87
2022/06/12 04:00:30;;;;;;;0.15;0.15;;;17.70;81.40;;;;;;5001605;28;20038;-87
2022/06/12 04:03:06;;;;;;;0.20;0.20;;;17.80;81.30;;;;;;5000856;28;20117;-85
2022/06/12 04:05:42;;;;;;;0.03;0.03;;;17.80;80.60;;;;;;4997459;28;20044;-85
2022/06/12 04:08:14;;;;;;;0.35;0.08;;;17.90;79.90;;;;;;4997857;28;20650;-85
2022/06/12 04:10:40;;;;;;;0.10;0.10;;;18.00;80.10;;;;;;4998583;28;20061;-86
2022/06/12 04:13:10;;;;;;;0.10;0.10;;;18.00;79.80;;;;;;5012590;28;20048;-85
2022/06/12 04:15:40;;;;;;;0.03;0.03;;;17.90;80.30;;;;;;5021213;28;20042;-86
2022/06/12 04:18:06;;;;;;;0.00;0.00;;;17.90;80.70;;;;;;5022181;28;20050;-85
2022/06/12 04:20:59;;;;;;;0.35;0.35;;;17.90;80.80;;;;;;5023755;28;20036;-84
2022/06/12 04:23:39;;;;;;;0.13;0.13;;;17.90;80.80;;;;;;5023550;28;20433;-83
2022/06/12 04:26:22;;;;;;;0.00;0.00;;;18.10;80.80;;;;;;5020830;28;20042;-85
2022/06/12 04:28:57;;;;;;;0.10;0.10;;;18.30;79.90;;;;;;5020631;28;20033;-86
2022/06/12 04:31:22;;;;;;;0.10;0.10;;;18.50;78.80;;;;;;5018177;28;20029;-83
2022/06/12 04:34:28;;;;;;;0.27;0.27;;;18.70;78.30;;;;;;5021700;28;20034;-84
2022/06/12 04:37:03;;;;;;;0.00;0.00;;;18.90;77.90;;;;;;5018014;28;20042;-83
2022/06/12 04:39:31;;;;;;;0.05;0.05;;;19.10;77.40;;;;;;5023759;28;20091;-86
2022/06/12 04:41:58;;;;;;;0.00;0.00;;;19.10;77.50;;;;;;5024333;28;20049;-83
2022/06/12 04:44:23;;;;;;;0.22;0.22;;;19.10;77.40;;;;;;5024309;28;20025;-85
2022/06/12 04:46:52;;;;;;;0.00;0.00;;;19.10;77.60;;;;;;5023545;28;20046;-88
2022/06/12 04:49:21;;;;;;;0.00;0.00;;;19.00;77.60;;;;;;4999091;28;20046;-80
2022/06/12 04:51:48;;;;;;;0.10;0.10;;;18.70;79.00;;;;;;5001329;28;20076;-80
2022/06/12 04:54:15;;;;;;;0.10;0.10;;;18.70;79.10;;;;;;5004055;28;20097;-79
2022/06/12 04:56:42;;;;;;;0.00;0.00;;;19.40;76.70;;;;;;5001602;28;20068;-81
2022/06/12 04:59:08;;;;;;;0.00;0.00;;;20.30;73.90;;;;;;5002118;28;20449;-79
2022/06/12 05:01:34;;;;;;;0.00;0.00;;;20.80;72.10;;;;;;5000632;28;20065;-79
2022/06/12 05:04:02;;;;;;;0.13;0.13;;;21.20;70.90;;;;;;5003263;28;20021;-79
2022/06/12 05:06:29;;;;;;;0.00;0.00;;;21.60;69.90;;;;;;5001306;28;20107;-79
2022/06/12 05:08:55;;;;;;;0.00;0.00;;;22.00;68.60;;;;;;5006437;28;20069;-79
2022/06/12 05:11:22;;;;;;;0.20;0.20;;;22.30;67.70;;;;;;5000764;28;20092;-78
2022/06/12 05:13:48;;;;;;;0.00;0.00;;;22.60;66.80;;;;;;5001552;28;20044;-78
2022/06/12 05:16:28;;;;;;;0.10;0.10;;;23.30;64.80;;;;;;5002311;28;20045;-78
2022/06/12 05:18:55;;;;;;;0.22;0.22;;;24.40;61.60;;;;;;4998647;28;20034;-78
2022/06/12 05:21:22;;;;;;;0.60;0.25;;;24.70;60.00;;;;;;5004457;28;20029;-80
2022/06/12 05:23:47;;;;;;;0.08;0.08;;;25.10;59.30;;;;;;5003415;28;20549;-77
2022/06/12 05:26:15;;;;;;;0.00;0.00;;;25.30;58.00;;;;;;5001883;28;20029;-78
2022/06/12 05:28:41;;;;;;;0.00;0.00;;;24.60;60.00;;;;;;5001004;28;20105;-78
2022/06/12 05:31:07;;;;;;;0.20;0.20;;;24.20;60.70;;;;;;5002011;28;20584;-78
2022/06/12 05:33:33;;;;;;;0.03;0.03;;;24.90;60.30;;;;;;5003751;28;20044;-78
2022/06/12 05:35:58;;;;;;;0.00;0.00;;;26.00;57.50;;;;;;5002922;28;20517;-77
2022/06/12 05:38:24;;;;;;;0.00;0.00;;;26.90;55.20;;;;;;5000298;28;20676;-77
2022/06/12 05:40:50;;;;;;;0.05;0.05;;;26.70;55.20;;;;;;5001078;28;20458;-77
2022/06/12 05:43:16;;;;;;;0.00;0.00;;;27.30;54.60;;;;;;5000317;28;20037;-79
2022/06/12 05:45:43;;;;;;;0.10;0.10;;;27.50;53.80;;;;;;4996505;28;20105;-79
2022/06/12 05:48:18;;;;;;;0.17;0.10;;;27.50;54.20;;;;;;5026327;28;20048;-80
2022/06/12 05:50:50;;;;;;;0.45;0.10;;;27.80;53.50;;;;;;5042276;28;20039;-81
2022/06/12 05:53:16;;;;;;;0.00;0.00;;;28.20;52.60;;;;;;5040864;28;20025;-81
2022/06/12 05:55:44;;;;;;;0.00;0.00;;;27.70;53.50;;;;;;5041311;28;20029;-81
2022/06/12 05:58:10;;;;;;;0.00;0.00;;;27.90;53.60;;;;;;5040663;28;20033;-80
2022/06/12 06:00:35;;;;;;;;;;;28.60;52.60;;;;;;5023541;28;20033;-80
2022/06/12 06:03:01;;;;;;;0.65;0.35;;;28.70;52.70;;;;;;5044291;28;19916;-80
2022/06/12 06:05:28;;;;;;;0.00;0.00;;;29.10;50.60;;;;;;5024796;28;20032;-79
2022/06/12 06:07:53;;;;;;;0.00;0.00;;;29.60;50.60;;;;;;5040654;28;20408;-79
2022/06/12 06:10:24;;;;;;;0.00;0.00;;;29.30;51.30;;;;;;5040959;28;20056;-80
2022/06/12 06:12:49;;;;;;;1.15;0.43;;;29.40;52.30;;;;;;5035892;28;20056;-80
2022/06/12 06:15:16;;;;;;;0.00;0.00;;;29.30;52.80;;;;;;5026966;28;20029;-79
2022/06/12 06:17:41;;;;;;;;;;;30.00;51.00;;;;;;5027135;28;20475;-80
2022/06/12 06:20:09;;;;;;;0.00;0.00;;;29.60;51.40;;;;;;5029089;28;19913;-80
2022/06/12 06:22:35;;;;;;;0.05;0.05;;;29.60;52.30;;;;;;5035046;28;20029;-80
2022/06/12 06:25:00;;;;;;;;;;;30.10;49.80;;;;;;5041247;28;20115;-80
2022/06/12 06:27:26;;;;;;;;;;;30.10;51.60;;;;;;5042338;28;19919;-80
2022/06/12 06:29:51;;;;;;;0.00;0.00;;;30.60;50.20;;;;;;5015671;28;20469;-79
2022/06/12 06:32:18;;;;;;;;;;;30.40;49.40;;;;;;5034944;28;20029;-80
2022/06/12 06:34:44;;;;;;;0.15;0.15;;;30.70;49.60;;;;;;5036272;28;20623;-80
2022/06/12 06:37:10;;;;;;;;;;;30.60;48.50;;;;;;5012979;28;20041;-80
2022/06/12 06:39:38;;;;;;;0.00;0.00;;;30.30;50.00;;;;;;5027580;28;19917;-80
2022/06/12 06:42:06;;;;;;;0.10;0.10;;;30.30;50.00;;;;;;5043415;28;20464;-79
2022/06/12 06:47:16;;;;;;;0.00;0.00;;;31.00;48.20;;;;;;5031217;28;20421;-76
2022/06/12 06:49:41;;;;;;;;;;;31.20;48.90;;;;;;5038096;28;20025;-76
2022/06/12 06:52:07;;;;;;;0.00;0.00;;;30.80;48.30;;;;;;5029925;28;19912;-77
2022/06/12 06:54:33;;;;;;;0.00;0.00;;;31.50;46.90;;;;;;5025526;28;20040;-76
2022/06/12 06:56:58;;;;;;;0.00;0.00;;;32.30;46.10;;;;;;5007780;28;20040;-77
2022/06/12 06:59:24;;;;;;;0.00;0.00;;;32.40;46.10;;;;;;5027309;28;20029;-76
2022/06/12 07:01:51;;;;;;;0.00;0.00;;;32.20;45.90;;;;;;5024404;28;20128;-76
2022/06/12 07:04:17;;;;;;;0.00;0.00;;;32.60;45.40;;;;;;5025803;28;20061;-77
2022/06/12 07:06:42;;;;;;;0.10;0.10;;;33.20;42.90;;;;;;5034177;28;20057;-76
2022/06/12 07:09:08;;;;;;;0.00;0.00;;;33.30;42.90;;;;;;5010003;28;20079;-77
2022/06/12 07:11:34;;;;;;;0.35;0.10;;;33.70;41.80;;;;;;5027467;28;20775;-77
2022/06/12 07:14:00;;;;;;;0.25;0.20;;;34.00;43.00;;;;;;5034357;28;20481;-77
2022/06/12 07:16:28;;;;;;;0.22;0.22;;;34.00;42.80;;;;;;5027758;28;20032;-81
2022/06/12 07:18:54;;;;;;;0.10;0.00;;;34.30;42.40;;;;;;5029806;28;20037;-76
2022/06/12 07:21:21;;;;;;;0.25;0.17;;;34.40;41.60;;;;;;5031588;28;20029;-76
2022/06/12 07:23:50;;;;;;;0.28;0.25;;;33.50;42.60;;;;;;5036761;28;20037;-77
2022/06/12 07:26:24;;;;;;;0.00;0.00;;;33.90;42.30;;;;;;5039038;28;20039;-76
2022/06/12 07:28:50;;;;;;;0.08;0.08;;;34.90;40.80;;;;;;5035430;28;20033;-77
2022/06/12 07:31:17;;;;;;;0.00;0.00;;;34.80;40.60;;;;;;5033803;28;20036;-78
2022/06/12 07:33:43;;;;;;;0.10;0.08;;;34.30;41.80;;;;;;5027009;28;20125;-77
2022/06/12 07:36:11;;;;;;;0.00;0.00;;;34.70;40.40;;;;;;5020267;28;20049;-77
2022/06/12 07:38:38;;;;;;;0.00;0.00;;;35.30;40.10;;;;;;5037442;28;20602;-77
2022/06/12 07:41:06;;;;;;;0.30;0.30;;;35.50;38.80;;;;;;5039282;28;20060;-75
2022/06/12 07:43:34;;;;;;;0.00;0.00;;;35.70;39.90;;;;;;5038386;28;20029;-76
2022/06/12 07:46:02;;;;;;;0.00;0.00;;;36.10;38.70;;;;;;5040044;28;20032;-77
2022/06/12 07:48:28;;;;;;;0.00;0.00;;;35.10;38.00;;;;;;5036620;28;20076;-78
2022/06/12 07:50:54;;;;;;;0.00;0.00;;;36.40;39.10;;;;;;5040178;28;20120;-79
2022/06/12 07:53:21;;;;;;;0.22;0.15;;;37.30;37.70;;;;;;5031334;28;20484;-86
2022/06/12 07:55:48;;;;;;;0.10;0.10;;;36.70;37.80;;;;;;5028588;28;20032;-84
2022/06/12 07:58:14;;;;;;;0.00;0.00;;;37.30;37.90;;;;;;5034076;28;20137;-85
2022/06/12 08:00:41;;;;;;;0.08;0.00;;;36.70;37.00;;;;;;5038998;28;20112;-86
2022/06/12 08:03:08;;;;;;;0.28;0.25;;;37.30;37.80;;;;;;5030188;28;20120;-85
2022/06/12 08:05:33;;;;;;;0.00;0.00;;;38.40;38.10;;;;;;5035811;28;20029;-85
2022/06/12 08:07:59;;;;;;;0.10;0.00;;;38.40;38.80;;;;;;5016351;28;20532;-85
2022/06/12 08:10:26;;;;;;;0.15;0.10;;;37.10;37.80;;;;;;5033564;28;20037;-86
2022/06/12 08:12:54;;;;;;;0.00;0.00;;;37.20;37.60;;;;;;5038907;28;20064;-85
2022/06/12 08:15:26;;;;;;;0.00;0.00;;;37.40;39.20;;;;;;5041833;28;20732;-86
2022/06/12 08:17:53;;;;;;;0.20;0.13;;;37.90;38.00;;;;;;5021426;28;20044;-85
2022/06/12 08:20:24;;;;;;;0.00;0.00;;;40.10;35.90;;;;;;5029589;28;20120;-86
2022/06/12 08:23:01;;;;;;;0.00;0.00;;;38.00;35.30;;;;;;5023454;28;20029;-85
2022/06/12 08:25:29;;;;;;;0.00;0.00;;;35.30;39.10;;;;;;5025365;28;20567;-85
2022/06/12 08:27:54;;;;;;;0.00;0.00;;;35.20;38.10;;;;;;5027298;28;20072;-83
2022/06/12 08:30:20;;;;;;;0.17;0.17;;;34.70;41.30;;;;;;5026882;28;20025;-85
2022/06/12 08:32:49;;;;;;;0.00;0.00;;;37.20;39.90;;;;;;5029083;28;20034;-85
2022/06/12 08:35:24;;;;;;;0.30;0.13;;;37.90;39.60;;;;;;5031361;28;20032;-86
2022/06/12 08:37:50;;;;;;;0.52;0.10;;;36.60;36.90;;;;;;5030724;28;20116;-85
2022/06/12 08:40:43;;;;;;;0.00;0.00;;;38.10;37.30;;;;;;5028818;28;20033;-85
2022/06/12 08:43:34;;;;;;;0.00;0.00;;;40.50;35.60;;;;;;4940679;28;20047;-85
2022/06/12 08:46:08;;;;;;;0.00;0.00;;;41.60;36.50;;;;;;4940364;29;20053;-85
2022/06/12 08:48:46;;;;;;;0.00;0.00;;;40.90;34.60;;;;;;4940442;29;20427;-85
2022/06/12 08:51:17;;;;;;;0.00;0.00;;;36.70;36.90;;;;;;4924525;29;20062;-85
2022/06/12 08:53:59;;;;;;;0.00;0.00;;;34.60;40.00;;;;;;4942364;29;20083;-85
2022/06/12 08:56:42;;;;;;;0.00;0.00;;;33.60;41.20;;;;;;4942405;29;20063;-85
2022/06/12 08:59:29;;;;;;;0.65;0.38;;;34.90;43.10;;;;;;4942737;29;20662;-83
2022/06/12 09:01:55;;;;;;;0.00;0.00;;;33.20;42.80;;;;;;4942694;29;20049;-85
2022/06/12 09:04:25;;;;;;;0.00;0.00;;;37.90;39.90;;;;;;4940456;29;20406;-86
2022/06/12 09:06:57;;;;;;;0.20;0.08;;;38.00;35.80;;;;;;4941546;29;20058;-86
2022/06/12 09:09:35;;;;;;;0.10;0.10;;;35.80;38.30;;;;;;4939467;29;20120;-85
2022/06/12 09:12:30;;;;;;;0.00;0.00;;;38.10;41.60;;;;;;4942365;29;20414;-85
2022/06/12 09:15:19;;;;;;;0.00;0.00;;;39.90;37.80;;;;;;4943259;29;20043;-86
2022/06/12 09:17:55;;;;;;;0.00;0.00;;;40.30;36.50;;;;;;4941916;29;20809;-86
2022/06/12 09:20:31;;;;;;;0.00;0.00;;;40.90;35.20;;;;;;4988012;28;20437;-88
2022/06/12 09:23:16;;;;;;;0.15;0.15;;;40.50;36.80;;;;;;5030788;28;20059;-87
2022/06/12 09:26:16;;;;;;;0.00;0.00;;;39.70;35.40;;;;;;5028524;28;20040;-88
2022/06/12 09:28:50;;;;;;;0.05;0.05;;;39.80;36.60;;;;;;5038008;28;20459;-86
2022/06/12 09:31:19;;;;;;;0.10;0.10;;;40.50;37.60;;;;;;5029506;28;20029;-87
2022/06/12 09:34:25;;;;;;;0.00;0.00;;;40.90;34.40;;;;;;5028013;28;20028;-86
2022/06/12 09:40:08;;;;;;;0.00;0.00;;;41.60;36.90;;;;;;4902345;29;20083;-87
2022/06/12 09:42:47;;;;;;;0.00;0.00;;;41.30;33.70;;;;;;4903843;29;20981;-87
2022/06/12 09:45:31;;;;;;;0.20;0.20;;;37.70;38.20;;;;;;4891799;29;20560;-87
2022/06/12 09:48:10;;;;;;;0.00;0.00;;;38.80;36.90;;;;;;4902102;29;20828;-84
2022/06/12 09:50:49;;;;;;;0.00;0.00;;;37.90;39.60;;;;;;4900428;29;20127;-85
2022/06/12 09:53:24;;;;;;;0.00;0.00;;;36.80;38.90;;;;;;4904827;29;20028;-85
2022/06/12 09:56:02;;;;;;;0.10;0.10;;;40.30;37.60;;;;;;4904210;29;20047;-85
2022/06/12 09:58:38;;;;;;;0.00;0.00;;;38.30;39.00;;;;;;4903504;29;20048;-85
2022/06/12 10:01:22;;;;;;;0.10;0.10;;;36.10;39.90;;;;;;4902110;29;20440;-85
2022/06/12 10:03:56;;;;;;;0.20;0.20;;;34.60;43.30;;;;;;4903170;29;20480;-84
2022/06/12 10:06:30;;;;;;;0.13;0.00;;;33.90;44.70;;;;;;4889164;29;20094;-85
2022/06/12 10:08:59;;;;;;;0.00;0.00;;;33.20;45.70;;;;;;4940595;29;20090;-84
2022/06/12 10:11:35;;;;;;;0.00;0.00;;;32.00;47.90;;;;;;4939724;28;20066;-86
2022/06/12 10:14:28;;;;;;;0.17;0.10;;;31.60;48.50;;;;;;4925329;28;20043;-86
2022/06/12 10:16:54;;;;;;;0.10;0.10;;;31.30;50.20;;;;;;4976415;28;20052;-85
2022/06/12 10:19:26;;;;;;;;;;;30.60;50.40;;;;;;5030637;28;20029;-85
2022/06/12 10:21:58;;;;;;;0.00;0.00;;;30.40;50.60;;;;;;5026539;28;19917;-85
2022/06/12 10:24:24;;;;;;;0.10;0.10;;;29.60;51.80;;;;;;5027740;28;20033;-84
2022/06/12 10:27:12;;;;;;;0.65;0.10;;;28.90;54.00;;;;;;5036666;28;20780;-84
2022/06/12 10:29:56;;;;;;;0.08;0.08;;;28.70;55.40;;;;;;5029023;28;20037;-84
2022/06/12 10:32:27;;;;;;;2.55;0.95;;;28.10;55.60;;;;;;5037798;28;20083;-82
2022/06/12 10:35:04;;;;;;;0.03;0.03;;;28.20;54.60;;;;;;5030762;28;20844;-81
2022/06/12 10:37:29;;;;;;;0.15;0.10;;;27.80;56.50;;;;;;5034194;28;20041;-81
2022/06/12 10:40:05;;;;;;;0.32;0.30;;;27.70;56.40;;;;;;5039274;28;21425;-81
2022/06/12 10:42:55;;;;;;;0.00;0.00;;;27.70;57.20;;;;;;5031579;28;20060;-83
2022/06/12 10:45:27;;;;;;;0.45;0.45;;;27.60;57.70;;;;;;5039230;28;20028;-83
2022/06/12 10:47:58;;;;;;;0.05;0.05;;;27.50;58.50;;;;;;5034202;28;20064;-84
2022/06/12 10:50:32;;;;;;;0.00;0.00;;;27.30;58.10;;;;;;5036215;28;20017;-83
2022/06/12 10:53:00;;;;;;;0.00;0.00;;;27.50;57.50;;;;;;5034798;28;20810;-83
2022/06/12 10:56:10;;;;;;;0.00;0.00;;;27.50;58.40;;;;;;5037018;28;20606;-84
2022/06/12 10:59:15;;;;;;;0.10;0.10;;;27.10;59.10;;;;;;4979499;28;20046;-83
2022/06/12 11:01:51;;;;;;;0.98;0.38;;;27.80;58.60;;;;;;4981518;28;20525;-83
2022/06/12 11:04:46;;;;;;;0.13;0.13;;;27.50;59.20;;;;;;4968341;28;21002;-83
2022/06/12 11:07:32;;;;;;;0.30;0.10;;;27.10;60.20;;;;;;4968858;28;20034;-83
2022/06/12 11:10:12;;;;;;;0.00;0.00;;;27.10;60.10;;;;;;4978790;28;20062;-83
2022/06/12 11:13:17;;;;;;;0.05;0.00;;;27.20;60.50;;;;;;4977731;28;20062;-82
2022/06/12 11:16:01;;;;;;;0.00;0.00;;;26.40;61.40;;;;;;4977239;28;20073;-83
2022/06/12 11:18:48;;;;;;;0.30;0.30;;;26.10;62.90;;;;;;4978561;28;20033;-83
2022/06/12 11:22:09;;;;;;;0.47;0.47;;;26.00;64.40;;;;;;4977281;28;20042;-84
2022/06/12 11:24:43;;;;;;;0.03;0.03;;;25.90;64.40;;;;;;4921146;29;20044;-84
2022/06/12 11:27:47;;;;;;;0.10;0.10;;;26.80;63.80;;;;;;4918726;29;20118;-84
2022/06/12 11:30:25;;;;;;;0.20;0.20;;;27.20;63.80;;;;;;4848720;29;20565;-84
2022/06/12 11:32:59;;;;;;;0.20;0.20;;;27.60;63.40;;;;;;4846979;29;20049;-84
2022/06/12 11:35:30;;;;;;;1.27;0.55;;;27.80;63.30;;;;;;4856157;29;20040;-84
2022/06/12 11:38:26;;;;;;;0.65;0.45;;;27.70;63.20;;;;;;4890499;29;20040;-82
2022/06/12 11:41:12;;;;;;;0.93;0.17;;;27.90;65.60;;;;;;4891366;29;20066;-83
2022/06/12 11:43:46;;;;;;;0.13;0.08;;;28.20;63.40;;;;;;4890813;29;20091;-83
2022/06/12 11:46:20;;;;;;;0.10;0.10;;;28.70;62.40;;;;;;4885211;29;20048;-82
2022/06/12 11:48:58;;;;;;;0.10;0.10;;;29.00;59.80;;;;;;4885045;29;20548;-79
2022/06/12 11:51:48;;;;;;;0.10;0.10;;;29.00;61.80;;;;;;4882280;29;20048;-78
2022/06/12 11:54:33;;;;;;;0.10;0.10;;;28.60;64.10;;;;;;4882732;29;20119;-78
2022/06/12 11:57:31;;;;;;;0.25;0.20;;;29.00;64.90;;;;;;4939847;29;20086;-78
2022/06/12 12:00:13;;;;;;;0.00;0.00;;;29.40;62.50;;;;;;4937126;28;20046;-79
2022/06/12 12:03:03;;;;;;;0.98;0.60;;;29.10;61.00;;;;;;5036592;28;20550;-79
2022/06/12 12:05:45;;;;;;;0.15;0.15;;;28.70;60.30;;;;;;5037785;28;20021;-79
2022/06/12 12:08:21;;;;;;;0.03;0.03;;;28.30;61.30;;;;;;5036441;28;20637;-79
2022/06/12 12:11:05;;;;;;;0.10;0.10;;;28.30;61.40;;;;;;5031547;28;20044;-79
2022/06/12 12:13:42;;;;;;;0.10;0.10;;;28.20;62.70;;;;;;5034013;28;20025;-79
2022/06/12 12:16:22;;;;;;;0.00;0.00;;;28.10;62.40;;;;;;5044978;28;20044;-80
2022/06/12 12:18:53;;;;;;;0.50;0.50;;;28.10;62.40;;;;;;5042207;28;20064;-79
2022/06/12 12:21:38;;;;;;;0.38;0.38;;;27.90;62.90;;;;;;5040401;28;20076;-79
2022/06/12 12:24:14;;;;;;;0.00;0.00;;;28.00;63.50;;;;;;5045481;28;20111;-79
2022/06/12 12:26:42;;;;;;;0.20;0.20;;;28.30;62.40;;;;;;5026617;28;20451;-78
2022/06/12 12:29:15;;;;;;;0.00;0.00;;;28.60;63.20;;;;;;5040043;28;20412;-79
2022/06/12 12:31:42;;;;;;;0.08;0.05;;;29.00;62.50;;;;;;5038314;28;20434;-79
2022/06/12 12:34:09;;;;;;;0.20;0.20;;;29.40;59.50;;;;;;5024413;28;20038;-79
2022/06/12 12:42:33;;;;;;;2.10;0.28;;;29.10;56.90;;;;;;5043980;28;20036;-80
2022/06/12 12:45:14;;;;;;;0.98;0.52;;;29.10;59.40;;;;;;5037463;28;20039;-80
2022/06/12 12:47:40;;;;;;;0.17;0.10;;;29.20;58.80;;;;;;5042788;28;20140;-80
2022/06/12 12:50:05;;;;;;;0.10;0.10;;;28.80;58.90;;;;;;5040330;28;20094;-79
2022/06/12 12:52:56;;;;;;;0.00;0.00;;;29.00;59.50;;;;;;5025083;28;20037;-79
2022/06/12 12:55:28;;;;;;;0.10;0.10;;;29.20;58.20;;;;;;5023291;28;20033;-80
2022/06/12 12:57:56;;;;;;;1.02;0.25;;;29.10;56.80;;;;;;5043007;28;20037;-79
2022/06/12 13:00:32;;;;;;;0.00;0.00;;;29.40;59.10;;;;;;5044335;28;20025;-80
2022/06/12 13:03:28;;;;;;;0.00;0.00;;;28.90;56.60;;;;;;5042295;28;20037;-79
2022/06/12 13:06:11;;;;;;;0.30;0.20;;;28.60;58.20;;;;;;4997662;28;20406;-79
2022/06/12 13:09:00;;;;;;;0.00;0.00;;;29.10;58.70;;;;;;4998974;28;20037;-79
2022/06/12 13:11:50;;;;;;;0.22;0.20;;;29.40;57.20;;;;;;4998428;28;20042;-78
2022/06/12 13:14:34;;;;;;;0.28;0.28;;;29.30;57.50;;;;;;4998490;28;20061;-78
2022/06/12 13:17:14;;;;;;;0.00;0.00;;;28.90;57.20;;;;;;4992075;28;20549;-80
2022/06/12 13:19:58;;;;;;;0.32;0.25;;;28.40;59.70;;;;;;4996790;28;20034;-79
2022/06/12 13:22:53;;;;;;;0.10;0.10;;;28.00;61.70;;;;;;4998392;28;20049;-79
2022/06/12 13:25:24;;;;;;;0.15;0.15;;;27.70;62.20;;;;;;4999635;28;20402;-81
2022/06/12 13:27:54;;;;;;;0.40;0.30;;;27.40;65.00;;;;;;5000747;28;20083;-84
2022/06/12 13:30:24;;;;;;;0.20;0.20;;;27.20;66.80;;;;;;5001576;28;20042;-82
2022/06/12 13:32:50;;;;;;;0.00;0.00;;;27.30;66.10;;;;;;4998184;28;20033;-81
2022/06/12 13:35:31;;;;;;;0.08;0.08;;;27.80;66.90;;;;;;4999603;28;20062;-82
2022/06/12 13:38:03;;;;;;;0.08;0.08;;;28.20;63.40;;;;;;4999926;28;20042;-82
2022/06/12 13:40:33;;;;;;;0.00;0.00;;;27.50;64.70;;;;;;4997008;28;20030;-81
2022/06/12 13:43:18;;;;;;;0.00;0.00;;;26.90;65.90;;;;;;5024208;28;20052;-81